Time;durP1;ratioP1;P1;durP2;ratioP2;P2;SDS_P1;SDS_P2;PMS_P1;PMS_P2;Temp;Humidity;BMP_temperature;BMP_pressure;BME280_temperature;BME280_humidity;BME280_pressure;Samples;Min_cycle;Max_cycle;Signal;HPM_P1;HPM_P2
2024/02/10 00:02:19;;;;;;;0.45;0.45;;;;;;;;;;5032012;28;20056;-86
2024/02/10 00:04:46;;;;;;;1.08;0.30;;;;;;;;;;5033590;28;20141;-86
2024/02/10 00:07:15;;;;;;;1.00;0.45;;;;;;;;;;5016450;28;20053;-86
2024/02/10 00:09:43;;;;;;;0.85;0.32;;;;;;;;;;5017216;28;20565;-87
2024/02/10 00:12:10;;;;;;;0.60;0.30;;;;;;;;;;5016425;28;20050;-87
2024/02/10 00:14:37;;;;;;;1.45;0.40;;;;;;;;;;5016397;28;20057;-87
2024/02/10 00:17:08;;;;;;;0.25;0.25;;;;;;;;;;5032725;28;20049;-86
2024/02/10 00:19:37;;;;;;;0.70;0.43;;;;;;;;;;5021219;28;20125;-87
2024/02/10 00:22:07;;;;;;;0.38;0.30;;;;;;;;;;5016619;28;20053;-87
2024/02/10 00:24:34;;;;;;;0.50;0.30;;;;;;;;;;5015591;28;20140;-87
2024/02/10 00:27:01;;;;;;;1.10;0.50;;;;;;;;;;5024679;28;20108;-87
2024/02/10 00:29:33;;;;;;;1.95;0.50;;;;;;;;;;5016039;28;20092;-87
2024/02/10 00:32:09;;;;;;;0.60;0.50;;;;;;;;;;5017569;28;20050;-87
2024/02/10 00:34:39;;;;;;;0.43;0.40;;;;;;;;;;5021876;28;20131;-87
2024/02/10 00:37:10;;;;;;;1.85;0.80;;;;;;;;;;5019819;28;20141;-87
2024/02/10 00:39:38;;;;;;;0.63;0.57;;;;;;;;;;5023908;28;20101;-86
2024/02/10 00:42:05;;;;;;;2.35;0.73;;;;;;;;;;5014931;28;20064;-87
2024/02/10 00:44:34;;;;;;;0.60;0.60;;;;;;;;;;5014804;28;20054;-87
2024/02/10 00:47:04;;;;;;;0.52;0.52;;;;;;;;;;5020494;28;20130;-86
2024/02/10 00:49:32;;;;;;;1.38;0.60;;;;;;;;;;5027780;28;20115;-86
2024/02/10 00:51:59;;;;;;;4.13;0.70;;;;;;;;;;5031707;28;20057;-87
2024/02/10 00:54:27;;;;;;;0.93;0.82;;;;;;;;;;5018558;28;20049;-85
2024/02/10 00:56:55;;;;;;;0.70;0.70;;;;;;;;;;5016630;28;20085;-85
2024/02/10 00:59:25;;;;;;;2.42;0.70;;;;;;;;;;5017269;28;20107;-85
2024/02/10 01:01:53;;;;;;;1.55;0.70;;;;;;;;;;5032970;28;20061;-85
2024/02/10 01:04:20;;;;;;;0.60;0.60;;;;;;;;;;5017446;28;20503;-85
2024/02/10 01:06:49;;;;;;;0.70;0.70;;;;;;;;;;5017143;28;20049;-85
2024/02/10 01:09:16;;;;;;;0.63;0.60;;;;;;;;;;5016888;28;20108;-85
2024/02/10 01:11:43;;;;;;;0.93;0.63;;;;;;;;;;5016850;28;20042;-85
2024/02/10 01:14:12;;;;;;;3.30;0.70;;;;;;;;;;5032685;28;20046;-85
2024/02/10 01:16:43;;;;;;;1.50;0.80;;;;;;;;;;5032930;28;20056;-85
2024/02/10 01:19:11;;;;;;;2.88;0.75;;;;;;;;;;5033095;28;20048;-85
2024/02/10 01:21:39;;;;;;;1.15;0.77;;;;;;;;;;5016364;28;20148;-84
2024/02/10 01:24:07;;;;;;;1.15;0.75;;;;;;;;;;5033351;28;20057;-85
2024/02/10 01:26:35;;;;;;;1.15;0.77;;;;;;;;;;5033862;28;20046;-85
2024/02/10 01:29:04;;;;;;;1.52;0.60;;;;;;;;;;5017833;28;20050;-87
2024/02/10 01:31:31;;;;;;;2.97;0.80;;;;;;;;;;5025462;28;20053;-87
2024/02/10 01:33:59;;;;;;;0.82;0.80;;;;;;;;;;5017689;28;20053;-88
2024/02/10 01:36:29;;;;;;;2.90;0.70;;;;;;;;;;5032151;28;20081;-87
2024/02/10 01:38:56;;;;;;;1.10;0.88;;;;;;;;;;5025183;28;20050;-87
2024/02/10 01:41:23;;;;;;;0.68;0.68;;;;;;;;;;5024983;28;20458;-87
2024/02/10 01:43:50;;;;;;;1.10;0.75;;;;;;;;;;5032809;28;20061;-87
2024/02/10 01:46:22;;;;;;;2.88;0.70;;;;;;;;;;5041692;28;20061;-87
2024/02/10 01:48:50;;;;;;;0.63;0.50;;;;;;;;;;5042249;28;20084;-87
2024/02/10 01:51:18;;;;;;;1.40;0.88;;;;;;;;;;5026027;28;20080;-87
2024/02/10 01:53:46;;;;;;;1.40;0.50;;;;;;;;;;5028300;28;20054;-88
2024/02/10 01:56:16;;;;;;;0.60;0.60;;;;;;;;;;5034968;28;20056;-86
2024/02/10 01:58:47;;;;;;;2.20;0.85;;;;;;;;;;5025780;28;20073;-87
2024/02/10 02:01:16;;;;;;;1.23;0.63;;;;;;;;;;5026586;28;20062;-87
2024/02/10 02:03:45;;;;;;;0.60;0.60;;;;;;;;;;5025703;28;20479;-87
2024/02/10 02:06:17;;;;;;;0.77;0.77;;;;;;;;;;5025703;28;20109;-87
2024/02/10 02:08:47;;;;;;;4.60;1.10;;;;;;;;;;5026216;28;20504;-87
2024/02/10 02:11:15;;;;;;;0.70;0.60;;;;;;;;;;5025376;28;20053;-87
2024/02/10 02:13:43;;;;;;;1.45;0.75;;;;;;;;;;5024952;28;20092;-88
2024/02/10 02:16:11;;;;;;;0.90;0.75;;;;;;;;;;5031914;28;20053;-87
2024/02/10 02:18:43;;;;;;;0.80;0.80;;;;;;;;;;5024031;28;20103;-87
2024/02/10 02:21:11;;;;;;;1.38;0.73;;;;;;;;;;5026789;28;20050;-87
2024/02/10 02:23:39;;;;;;;1.80;0.73;;;;;;;;;;5027464;28;20049;-87
2024/02/10 02:26:06;;;;;;;1.08;0.73;;;;;;;;;;5041519;28;20454;-87
2024/02/10 02:28:33;;;;;;;0.63;0.60;;;;;;;;;;5041596;28;20109;-87
2024/02/10 02:31:04;;;;;;;1.45;1.10;;;;;;;;;;5025192;28;20053;-87
2024/02/10 02:33:32;;;;;;;1.33;0.75;;;;;;;;;;5024803;28;20112;-87
2024/02/10 02:36:00;;;;;;;4.18;0.90;;;;;;;;;;5040678;28;20069;-87
2024/02/10 02:38:27;;;;;;;3.22;0.93;;;;;;;;;;5023892;28;20104;-87
2024/02/10 02:40:54;;;;;;;2.90;1.10;;;;;;;;;;5024129;28;20077;-88
2024/02/10 02:43:22;;;;;;;1.75;0.80;;;;;;;;;;5024482;28;20506;-87
2024/02/10 02:45:49;;;;;;;6.32;1.17;;;;;;;;;;5024865;28;20050;-87
2024/02/10 02:48:17;;;;;;;8.60;0.90;;;;;;;;;;5031356;28;20076;-87
2024/02/10 02:50:46;;;;;;;2.28;0.82;;;;;;;;;;5024100;28;20061;-87
2024/02/10 02:53:14;;;;;;;2.33;1.02;;;;;;;;;;5026828;28;20056;-87
2024/02/10 02:55:45;;;;;;;2.05;0.60;;;;;;;;;;5025745;28;20049;-86
2024/02/10 02:58:13;;;;;;;0.55;0.47;;;;;;;;;;5034275;28;20460;-87
2024/02/10 03:00:41;;;;;;;2.17;0.80;;;;;;;;;;5027423;28;20104;-87
2024/02/10 03:03:08;;;;;;;3.70;1.80;;;;;;;;;;5026547;28;20058;-87
2024/02/10 03:05:37;;;;;;;3.92;1.10;;;;;;;;;;5024850;28;20054;-87
2024/02/10 03:08:06;;;;;;;2.15;0.80;;;;;;;;;;5041897;28;20050;-87
2024/02/10 03:10:34;;;;;;;1.00;0.90;;;;;;;;;;5027736;28;20057;-86
2024/02/10 03:13:01;;;;;;;1.70;0.98;;;;;;;;;;5027101;28;20053;-86
2024/02/10 03:15:30;;;;;;;1.67;0.77;;;;;;;;;;5044279;28;20050;-87
2024/02/10 03:17:58;;;;;;;5.78;2.05;;;;;;;;;;5033030;28;20080;-87
2024/02/10 03:20:28;;;;;;;1.20;1.20;;;;;;;;;;5040906;28;20069;-88
2024/02/10 03:23:01;;;;;;;1.50;0.88;;;;;;;;;;5040370;28;20042;-85
2024/02/10 03:25:30;;;;;;;1.45;0.93;;;;;;;;;;5039753;28;20053;-84
2024/02/10 03:27:58;;;;;;;1.33;0.82;;;;;;;;;;5023682;28;20074;-85
2024/02/10 03:30:25;;;;;;;2.15;0.85;;;;;;;;;;5024053;28;20054;-85
2024/02/10 03:32:55;;;;;;;2.55;1.40;;;;;;;;;;5023869;28;20054;-85
2024/02/10 03:35:25;;;;;;;1.80;1.38;;;;;;;;;;5024328;28;20129;-85
2024/02/10 03:37:52;;;;;;;1.92;1.00;;;;;;;;;;5021048;28;20054;-85
2024/02/10 03:40:20;;;;;;;0.98;0.70;;;;;;;;;;5018701;28;20478;-85
2024/02/10 03:42:48;;;;;;;0.80;0.70;;;;;;;;;;5035037;28;20042;-84
2024/02/10 03:45:15;;;;;;;1.48;1.02;;;;;;;;;;5018281;28;20084;-85
2024/02/10 03:47:43;;;;;;;2.42;1.05;;;;;;;;;;5026462;28;20050;-84
2024/02/10 03:50:11;;;;;;;1.80;1.33;;;;;;;;;;5034813;28;20061;-84
2024/02/10 03:52:39;;;;;;;2.65;1.00;;;;;;;;;;5019235;28;20053;-85
2024/02/10 03:55:10;;;;;;;1.40;0.98;;;;;;;;;;5035256;28;20053;-85
2024/02/10 03:57:37;;;;;;;1.38;0.70;;;;;;;;;;5021561;28;20080;-85
2024/02/10 04:00:08;;;;;;;3.78;0.60;;;;;;;;;;5020405;28;20511;-85
2024/02/10 04:02:36;;;;;;;1.15;0.80;;;;;;;;;;5035666;28;20507;-85
2024/02/10 04:05:04;;;;;;;1.20;1.10;;;;;;;;;;5020144;28;20057;-85
2024/02/10 04:07:35;;;;;;;1.25;1.15;;;;;;;;;;5028022;28;20129;-85
2024/02/10 04:10:04;;;;;;;1.85;0.80;;;;;;;;;;5020935;28;20070;-85
2024/02/10 04:12:32;;;;;;;2.67;0.93;;;;;;;;;;5021389;28;20145;-85
2024/02/10 04:15:02;;;;;;;0.68;0.55;;;;;;;;;;5023379;28;20096;-85
2024/02/10 04:17:29;;;;;;;1.25;0.60;;;;;;;;;;5027351;28;20402;-86
2024/02/10 04:19:57;;;;;;;1.73;0.88;;;;;;;;;;5040281;28;20050;-86
2024/02/10 04:22:25;;;;;;;2.42;0.60;;;;;;;;;;5028711;28;20041;-86
2024/02/10 04:24:53;;;;;;;0.95;0.95;;;;;;;;;;5039313;28;20108;-85
2024/02/10 04:27:20;;;;;;;3.70;1.85;;;;;;;;;;5035685;28;20521;-85
2024/02/10 04:29:48;;;;;;;0.68;0.60;;;;;;;;;;5035226;28;20061;-85
2024/02/10 04:32:15;;;;;;;2.28;0.82;;;;;;;;;;5018846;28;20108;-85
2024/02/10 04:34:45;;;;;;;2.65;0.80;;;;;;;;;;5019119;28;20054;-86
2024/02/10 04:37:12;;;;;;;1.00;0.80;;;;;;;;;;5025938;28;20049;-86
2024/02/10 04:39:40;;;;;;;1.55;0.80;;;;;;;;;;5017199;28;20123;-86
2024/02/10 04:42:07;;;;;;;1.17;0.82;;;;;;;;;;5017919;28;20049;-86
2024/02/10 04:44:35;;;;;;;1.98;0.98;;;;;;;;;;5018949;28;20077;-87
2024/02/10 04:47:02;;;;;;;1.45;1.35;;;;;;;;;;5020365;28;20069;-86
2024/02/10 04:49:29;;;;;;;1.83;1.33;;;;;;;;;;5020760;28;20118;-87
2024/02/10 04:51:57;;;;;;;1.45;1.20;;;;;;;;;;5019432;28;20053;-86
2024/02/10 04:54:24;;;;;;;1.95;1.85;;;;;;;;;;5017500;28;20057;-87
2024/02/10 04:56:52;;;;;;;1.65;1.58;;;;;;;;;;5019207;28;20057;-87
2024/02/10 04:59:26;;;;;;;4.75;3.00;;;;;;;;;;5017611;28;20050;-86
2024/02/10 05:01:54;;;;;;;1.63;1.52;;;;;;;;;;5025756;28;20149;-87
2024/02/10 05:04:22;;;;;;;1.83;1.33;;;;;;;;;;5033630;28;20072;-86
2024/02/10 05:06:49;;;;;;;2.00;1.90;;;;;;;;;;5032273;28;20056;-86
2024/02/10 05:09:17;;;;;;;4.88;2.80;;;;;;;;;;5015886;28;20053;-86
2024/02/10 05:11:44;;;;;;;3.83;2.72;;;;;;;;;;5014337;28;20495;-86
2024/02/10 05:14:11;;;;;;;8.82;4.38;;;;;;;;;;5016181;28;20081;-86
2024/02/10 05:16:39;;;;;;;7.85;3.67;;;;;;;;;;5030353;28;20053;-86
2024/02/10 05:19:06;;;;;;;3.25;2.88;;;;;;;;;;5030126;28;20412;-86
2024/02/10 05:21:37;;;;;;;4.68;3.03;;;;;;;;;;5016173;28;20042;-87
2024/02/10 05:24:10;;;;;;;6.97;3.38;;;;;;;;;;5026839;28;20042;-87
2024/02/10 05:26:40;;;;;;;9.75;4.20;;;;;;;;;;5032743;28;20085;-87
2024/02/10 05:29:10;;;;;;;3.15;2.80;;;;;;;;;;5019176;28;20108;-87
2024/02/10 05:31:38;;;;;;;5.90;3.85;;;;;;;;;;5024802;28;20053;-87
2024/02/10 05:34:06;;;;;;;4.45;3.30;;;;;;;;;;5035154;28;20058;-87
2024/02/10 05:36:34;;;;;;;5.85;4.57;;;;;;;;;;5019373;28;20092;-87
2024/02/10 05:39:08;;;;;;;4.88;3.55;;;;;;;;;;5022388;28;20050;-87
2024/02/10 05:41:36;;;;;;;17.75;4.10;;;;;;;;;;5019713;28;20050;-87
2024/02/10 05:44:03;;;;;;;3.85;3.55;;;;;;;;;;5020978;28;20110;-87
2024/02/10 05:46:31;;;;;;;7.18;4.75;;;;;;;;;;5019397;28;20049;-87
2024/02/10 05:48:59;;;;;;;9.82;5.20;;;;;;;;;;5009158;28;20117;-87
2024/02/10 05:51:26;;;;;;;10.45;4.50;;;;;;;;;;5020565;28;20073;-87
2024/02/10 05:53:53;;;;;;;19.48;6.25;;;;;;;;;;5022089;28;20077;-87
2024/02/10 05:56:23;;;;;;;10.50;6.10;;;;;;;;;;5037646;28;20141;-88
2024/02/10 05:58:50;;;;;;;4.88;3.42;;;;;;;;;;5021848;28;20112;-87
2024/02/10 06:01:19;;;;;;;11.02;5.38;;;;;;;;;;5021741;28;20060;-87
2024/02/10 06:03:52;;;;;;;23.20;8.27;;;;;;;;;;5021070;28;20046;-87
2024/02/10 06:06:19;;;;;;;26.70;7.28;;;;;;;;;;5028024;28;20124;-87
2024/02/10 06:08:47;;;;;;;13.15;6.28;;;;;;;;;;5020592;28;20050;-87
2024/02/10 06:11:18;;;;;;;4.30;3.90;;;;;;;;;;5036614;28;20049;-87
2024/02/10 06:13:50;;;;;;;7.78;3.40;;;;;;;;;;5020195;28;20053;-88
2024/02/10 06:16:21;;;;;;;4.03;2.67;;;;;;;;;;5023485;28;20054;-86
2024/02/10 06:18:49;;;;;;;5.75;3.60;;;;;;;;;;5038866;28;20081;-87
2024/02/10 06:21:17;;;;;;;18.50;5.22;;;;;;;;;;5022687;28;20587;-88
2024/02/10 06:23:44;;;;;;;12.27;5.13;;;;;;;;;;5020487;28;20050;-87
2024/02/10 06:26:11;;;;;;;9.50;5.03;;;;;;;;;;5020444;28;20060;-88
2024/02/10 06:28:39;;;;;;;5.85;4.68;;;;;;;;;;5020403;28;20109;-87
2024/02/10 06:31:14;;;;;;;5.32;4.40;;;;;;;;;;5036304;28;20050;-87
2024/02/10 06:33:45;;;;;;;4.00;3.67;;;;;;;;;;5036699;28;20387;-87
2024/02/10 06:36:13;;;;;;;46.58;6.30;;;;;;;;;;5021567;28;20069;-88
2024/02/10 06:38:42;;;;;;;36.65;6.03;;;;;;;;;;5021341;28;20081;-87
2024/02/10 06:41:10;;;;;;;4.68;4.28;;;;;;;;;;5037941;28;20042;-87
2024/02/10 06:43:38;;;;;;;3.72;3.30;;;;;;;;;;5036906;28;20045;-87
2024/02/10 06:46:08;;;;;;;49.38;20.08;;;;;;;;;;5025085;22;20081;-80
2024/02/10 06:48:36;;;;;;;97.47;41.08;;;;;;;;;;5021667;28;20133;-79
2024/02/10 06:51:03;;;;;;;36.45;16.58;;;;;;;;;;5023432;28;20449;-79
2024/02/10 06:53:32;;;;;;;21.58;10.95;;;;;;;;;;5026806;28;20053;-79
2024/02/10 06:56:02;;;;;;;18.35;10.23;;;;;;;;;;5025240;28;20050;-80
2024/02/10 06:58:30;;;;;;;10.98;7.45;;;;;;;;;;5024637;28;20077;-81
2024/02/10 07:00:58;;;;;;;8.15;5.30;;;;;;;;;;5022057;28;20042;-80
2024/02/10 07:03:26;;;;;;;9.88;4.70;;;;;;;;;;5019035;28;20133;-80
2024/02/10 07:05:55;;;;;;;6.43;4.28;;;;;;;;;;5026016;28;20058;-81
2024/02/10 07:08:22;;;;;;;8.25;4.63;;;;;;;;;;5024972;28;20052;-80
2024/02/10 07:10:50;;;;;;;5.45;4.60;;;;;;;;;;5019774;28;20050;-80
2024/02/10 07:13:17;;;;;;;23.45;6.90;;;;;;;;;;5018070;28;20477;-80
2024/02/10 07:15:45;;;;;;;15.70;8.90;;;;;;;;;;5019507;28;20092;-80
2024/02/10 07:18:13;;;;;;;11.10;6.45;;;;;;;;;;5017405;28;20050;-80
2024/02/10 07:20:41;;;;;;;10.88;6.43;;;;;;;;;;5019159;28;20081;-80
2024/02/10 07:23:08;;;;;;;7.63;5.75;;;;;;;;;;5017100;28;20479;-80
2024/02/10 07:25:37;;;;;;;12.10;8.32;;;;;;;;;;5017635;28;20058;-80
2024/02/10 07:28:05;;;;;;;6.35;5.57;;;;;;;;;;5019349;28;20485;-80
2024/02/10 07:30:34;;;;;;;7.72;5.90;;;;;;;;;;5019792;28;20129;-80
2024/02/10 07:33:12;;;;;;;16.08;8.10;;;;;;;;;;5018293;28;20497;-80
2024/02/10 07:35:39;;;;;;;6.00;5.22;;;;;;;;;;5022547;28;20046;-80
2024/02/10 07:38:08;;;;;;;7.88;5.63;;;;;;;;;;5023297;28;20042;-80
2024/02/10 07:40:36;;;;;;;10.50;7.47;;;;;;;;;;5022553;28;20041;-81
2024/02/10 07:43:05;;;;;;;9.70;7.47;;;;;;;;;;5018965;28;20513;-80
2024/02/10 07:45:33;;;;;;;74.00;37.70;;;;;;;;;;5019034;28;20058;-80
2024/02/10 07:48:03;;;;;;;27.75;15.55;;;;;;;;;;5018418;28;20054;-80
2024/02/10 07:50:31;;;;;;;10.50;6.93;;;;;;;;;;5019151;28;20393;-80
2024/02/10 07:52:59;;;;;;;7.15;5.97;;;;;;;;;;5017360;28;20132;-80
2024/02/10 07:55:27;;;;;;;7.82;6.38;;;;;;;;;;5017243;28;20050;-81
2024/02/10 07:57:56;;;;;;;76.20;40.13;;;;;;;;;;5016278;28;20050;-80
2024/02/10 08:00:23;;;;;;;110.93;64.95;;;;;;;;;;5016478;28;20049;-80
2024/02/10 08:02:50;;;;;;;61.15;29.85;;;;;;;;;;5016699;28;20571;-80
2024/02/10 08:05:20;;;;;;;10.80;8.15;;;;;;;;;;5017682;28;20056;-80
2024/02/10 08:07:48;;;;;;;4.88;4.47;;;;;;;;;;5016688;28;20061;-80
2024/02/10 08:10:18;;;;;;;3.50;3.22;;;;;;;;;;5018160;28;20100;-81
2024/02/10 08:12:50;;;;;;;18.50;5.13;;;;;;;;;;5018322;28;20081;-81
2024/02/10 08:15:17;;;;;;;4.47;4.07;;;;;;;;;;5019121;28;20057;-81
2024/02/10 08:17:44;;;;;;;6.13;4.95;;;;;;;;;;5018971;28;20045;-80
2024/02/10 08:20:12;;;;;;;52.70;5.03;;;;;;;;;;5017671;28;20049;-81
2024/02/10 08:22:40;;;;;;;5.43;3.40;;;;;;;;;;5016505;28;20053;-81
2024/02/10 08:25:09;;;;;;;5.75;3.03;;;;;;;;;;5011036;28;20042;-81
2024/02/10 08:27:39;;;;;;;10.30;2.95;;;;;;;;;;5021235;28;20080;-80
2024/02/10 08:30:15;;;;;;;5.65;2.85;;;;;;;;;;5020383;28;20050;-80
2024/02/10 08:32:42;;;;;;;13.07;3.13;;;;;;;;;;5016479;28;20587;-80
2024/02/10 08:35:11;;;;;;;2.15;2.05;;;;;;;;;;5016193;28;20073;-81
2024/02/10 08:37:39;;;;;;;2.60;2.40;;;;;;;;;;5020056;28;20069;-81
2024/02/10 08:40:09;;;;;;;3.28;2.72;;;;;;;;;;5019750;28;20046;-80
2024/02/10 08:42:37;;;;;;;3.00;2.80;;;;;;;;;;5017796;28;20046;-80
2024/02/10 08:45:08;;;;;;;2.72;2.55;;;;;;;;;;5017668;28;20054;-80
2024/02/10 08:47:35;;;;;;;7.32;2.35;;;;;;;;;;5018034;28;20056;-80
2024/02/10 08:50:03;;;;;;;1.80;1.70;;;;;;;;;;5016472;28;20428;-80
2024/02/10 08:52:31;;;;;;;2.55;1.50;;;;;;;;;;5017320;28;20054;-80
2024/02/10 08:54:59;;;;;;;1.63;1.25;;;;;;;;;;5016778;28;20057;-80
2024/02/10 08:57:26;;;;;;;5.15;1.00;;;;;;;;;;5016144;28;20053;-80
2024/02/10 08:59:54;;;;;;;1.95;0.98;;;;;;;;;;5018123;28;20524;-81
2024/02/10 09:02:22;;;;;;;1.40;0.70;;;;;;;;;;5020997;28;20136;-81
2024/02/10 09:04:50;;;;;;;1.67;0.90;;;;;;;;;;5020376;28;20046;-81
2024/02/10 09:07:18;;;;;;;0.52;0.52;;;;;;;;;;5018119;28;20057;-80
2024/02/10 09:09:46;;;;;;;1.00;0.60;;;;;;;;;;5018044;28;20081;-81
2024/02/10 09:12:14;;;;;;;0.30;0.30;;;;;;;;;;5017267;28;20054;-81
2024/02/10 09:14:41;;;;;;;0.40;0.40;;;;;;;;;;5017056;28;20050;-81
2024/02/10 09:17:09;;;;;;;0.82;0.50;;;;;;;;;;5016501;28;20053;-79
2024/02/10 09:19:36;;;;;;;0.70;0.40;;;;;;;;;;5016653;28;20077;-79
2024/02/10 09:22:05;;;;;;;0.40;0.40;;;;;;;;;;5017059;28;20108;-79
2024/02/10 09:24:35;;;;;;;0.50;0.50;;;;;;;;;;5017078;28;20045;-79
2024/02/10 09:27:09;;;;;;;0.30;0.30;;;;;;;;;;5016811;28;20128;-79
2024/02/10 09:29:37;;;;;;;0.40;0.40;;;;;;;;;;5017669;28;20058;-79
2024/02/10 09:32:04;;;;;;;0.47;0.40;;;;;;;;;;5017379;28;20053;-79
2024/02/10 09:34:31;;;;;;;0.10;0.10;;;;;;;;;;5016153;28;20137;-79
2024/02/10 09:36:59;;;;;;;0.20;0.20;;;;;;;;;;5017784;28;20074;-79
2024/02/10 09:39:27;;;;;;;0.57;0.30;;;;;;;;;;5015651;28;20046;-80
2024/02/10 09:42:00;;;;;;;0.28;0.28;;;;;;;;;;5014877;28;20512;-80
2024/02/10 09:44:33;;;;;;;2.35;0.40;;;;;;;;;;5017098;28;20081;-79
2024/02/10 09:47:01;;;;;;;2.70;0.30;;;;;;;;;;5016482;28;20057;-80
2024/02/10 09:49:30;;;;;;;1.55;0.20;;;;;;;;;;5017228;28;20050;-80
2024/02/10 09:51:58;;;;;;;0.35;0.20;;;;;;;;;;5017031;28;20050;-80
2024/02/10 09:54:26;;;;;;;0.43;0.40;;;;;;;;;;5018875;28;20064;-79
2024/02/10 09:56:55;;;;;;;0.70;0.40;;;;;;;;;;5018465;28;20061;-79
2024/02/10 09:59:25;;;;;;;0.40;0.25;;;;;;;;;;5016701;28;20049;-79
2024/02/10 10:01:54;;;;;;;1.02;0.50;;;;;;;;;;5016575;28;20048;-79
2024/02/10 10:04:21;;;;;;;1.23;0.40;;;;;;;;;;5016513;28;20050;-79
2024/02/10 10:06:49;;;;;;;0.30;0.30;;;;;;;;;;5015948;28;20053;-79
2024/02/10 10:09:20;;;;;;;27.67;18.30;;;;;;;;;;5017806;28;20045;-79
2024/02/10 10:11:51;;;;;;;6.25;5.70;;;;;;;;;;5017663;28;20069;-80
2024/02/10 10:14:19;;;;;;;0.85;0.50;;;;;;;;;;5017403;28;20134;-80
2024/02/10 10:16:57;;;;;;;0.45;0.45;;;;;;;;;;5016660;28;20065;-79
2024/02/10 10:19:26;;;;;;;0.85;0.65;;;;;;;;;;5018020;28;20073;-79
2024/02/10 10:21:58;;;;;;;0.52;0.30;;;;;;;;;;5017650;28;20424;-80
2024/02/10 10:24:27;;;;;;;0.25;0.25;;;;;;;;;;5015443;28;20069;-80
2024/02/10 10:26:56;;;;;;;0.30;0.30;;;;;;;;;;5016590;28;20424;-80
2024/02/10 10:29:23;;;;;;;2.45;1.60;;;;;;;;;;5016973;28;20053;-80
2024/02/10 10:31:53;;;;;;;1.05;0.98;;;;;;;;;;5016450;28;20046;-80
2024/02/10 10:34:22;;;;;;;0.50;0.50;;;;;;;;;;5014676;28;20060;-80
2024/02/10 10:36:52;;;;;;;2.33;1.50;;;;;;;;;;5014236;28;20420;-80
2024/02/10 10:39:21;;;;;;;1.15;0.70;;;;;;;;;;5014952;28;20073;-80
2024/02/10 10:41:48;;;;;;;0.55;0.55;;;;;;;;;;5014350;28;20500;-80
2024/02/10 10:44:17;;;;;;;3.03;0.75;;;;;;;;;;5013759;28;20123;-80
2024/02/10 10:46:45;;;;;;;0.82;0.82;;;;;;;;;;5014175;28;20081;-80
2024/02/10 10:49:13;;;;;;;3.40;1.13;;;;;;;;;;5013653;28;20069;-80
2024/02/10 10:52:01;;;;;;;3.70;3.05;;;;;;;;;;5014954;28;20045;-80
2024/02/10 10:54:31;;;;;;;3.05;2.22;;;;;;;;;;5013457;28;20424;-80
2024/02/10 10:57:02;;;;;;;2.08;1.98;;;;;;;;;;5014803;28;20402;-80
2024/02/10 10:59:35;;;;;;;10.90;7.53;;;;;;;;;;5014956;28;20277;-80
2024/02/10 11:02:04;;;;;;;3.20;3.00;;;;;;;;;;5013463;28;20129;-80
2024/02/10 11:04:34;;;;;;;4.57;4.18;;;;;;;;;;5014690;28;20567;-79
2024/02/10 11:07:09;;;;;;;4.55;4.25;;;;;;;;;;5014407;28;20050;-80
2024/02/10 11:09:48;;;;;;;4.20;3.90;;;;;;;;;;5014139;28;20423;-80
2024/02/10 11:12:16;;;;;;;3.42;3.22;;;;;;;;;;5013256;28;20042;-80
2024/02/10 11:14:53;;;;;;;3.70;3.40;;;;;;;;;;5014367;28;20046;-80
2024/02/10 11:17:20;;;;;;;3.17;2.97;;;;;;;;;;5017074;28;20049;-80
2024/02/10 11:20:00;;;;;;;2.90;2.70;;;;;;;;;;5016490;28;20100;-81
2024/02/10 11:22:37;;;;;;;3.50;3.30;;;;;;;;;;5015713;28;20077;-80
2024/02/10 11:25:11;;;;;;;4.50;4.20;;;;;;;;;;5014803;28;20050;-81
2024/02/10 11:27:44;;;;;;;4.10;3.80;;;;;;;;;;5016136;28;20050;-81
2024/02/10 11:30:11;;;;;;;3.90;3.60;;;;;;;;;;5014715;28;20120;-81
2024/02/10 11:32:42;;;;;;;3.38;3.08;;;;;;;;;;5014150;28;20463;-81
2024/02/10 11:35:12;;;;;;;8.10;6.88;;;;;;;;;;5004318;28;20053;-80
2024/02/10 11:37:40;;;;;;;7.55;6.78;;;;;;;;;;5016007;28;20042;-80
2024/02/10 11:40:11;;;;;;;3.75;3.45;;;;;;;;;;4996970;28;20050;-81
2024/02/10 11:42:39;;;;;;;9.05;7.88;;;;;;;;;;4999177;28;20039;-81
2024/02/10 11:45:09;;;;;;;13.50;9.77;;;;;;;;;;5000195;28;20046;-81
2024/02/10 11:47:37;;;;;;;6.20;5.13;;;;;;;;;;4996626;28;20050;-81
2024/02/10 11:50:05;;;;;;;6.68;6.03;;;;;;;;;;5000403;28;20101;-81
2024/02/10 11:52:32;;;;;;;14.23;9.98;;;;;;;;;;4995989;28;20054;-81
2024/02/10 11:55:00;;;;;;;21.10;15.38;;;;;;;;;;4992389;28;20438;-81
2024/02/10 11:57:27;;;;;;;5.45;5.05;;;;;;;;;;5013587;28;20124;-81
2024/02/10 11:59:55;;;;;;;5.68;4.20;;;;;;;;;;5018528;28;20049;-81
2024/02/10 12:02:23;;;;;;;3.10;2.90;;;;;;;;;;5019518;28;20046;-81
2024/02/10 12:04:51;;;;;;;3.28;3.08;;;;;;;;;;5015835;28;20109;-81
2024/02/10 12:07:19;;;;;;;3.45;2.88;;;;;;;;;;5013400;28;20046;-81
2024/02/10 12:09:47;;;;;;;3.60;3.30;;;;;;;;;;5020396;28;20041;-81
2024/02/10 12:12:15;;;;;;;4.57;3.15;;;;;;;;;;5018436;28;20050;-81
2024/02/10 12:14:43;;;;;;;3.90;3.60;;;;;;;;;;5018971;28;20046;-81
2024/02/10 12:17:13;;;;;;;63.20;32.75;;;;;;;;;;5018473;28;20108;-81
2024/02/10 12:19:40;;;;;;;5.68;5.18;;;;;;;;;;5019425;28;20054;-81
2024/02/10 12:22:09;;;;;;;4.25;3.95;;;;;;;;;;5020316;28;20072;-81
2024/02/10 12:24:37;;;;;;;3.95;3.10;;;;;;;;;;5018792;28;20052;-81
2024/02/10 12:27:05;;;;;;;11.50;8.82;;;;;;;;;;5020839;28;20046;-81
2024/02/10 12:29:32;;;;;;;16.30;14.65;;;;;;;;;;5021990;28;20049;-82
2024/02/10 12:31:59;;;;;;;9.10;6.20;;;;;;;;;;5020004;28;20424;-82
2024/02/10 12:34:27;;;;;;;12.63;11.35;;;;;;;;;;5019826;28;20064;-81
2024/02/10 12:36:54;;;;;;;17.50;11.57;;;;;;;;;;5019625;28;20057;-81
2024/02/10 12:39:21;;;;;;;5.70;5.22;;;;;;;;;;5020183;28;20497;-81
2024/02/10 12:41:49;;;;;;;18.27;16.30;;;;;;;;;;5019486;28;20049;-82
2024/02/10 12:44:17;;;;;;;7.60;6.88;;;;;;;;;;5020605;28;20046;-82
2024/02/10 12:46:45;;;;;;;20.92;18.30;;;;;;;;;;5019586;28;20280;-81
2024/02/10 12:49:13;;;;;;;5.50;4.32;;;;;;;;;;5020650;28;20064;-82
2024/02/10 12:51:40;;;;;;;3.85;3.25;;;;;;;;;;5023738;28;20054;-82
2024/02/10 12:54:10;;;;;;;5.53;4.03;;;;;;;;;;5025196;28;20045;-82
2024/02/10 12:56:39;;;;;;;5.07;3.60;;;;;;;;;;5024760;28;20056;-82
2024/02/10 12:59:07;;;;;;;4.53;3.42;;;;;;;;;;5030496;23;20061;-85
2024/02/10 13:01:36;;;;;;;6.55;3.65;;;;;;;;;;5029003;28;20491;-85
2024/02/10 13:04:04;;;;;;;4.00;3.65;;;;;;;;;;5020475;28;20050;-85
2024/02/10 13:06:33;;;;;;;7.38;3.17;;;;;;;;;;5010693;28;20120;-85
2024/02/10 13:09:02;;;;;;;4.18;3.55;;;;;;;;;;5026072;28;20495;-85
2024/02/10 13:11:31;;;;;;;5.43;3.45;;;;;;;;;;5011304;28;20060;-85
2024/02/10 13:14:01;;;;;;;6.25;3.40;;;;;;;;;;4986113;28;20152;-85
2024/02/10 13:16:30;;;;;;;4.88;3.00;;;;;;;;;;5002283;28;20502;-85
2024/02/10 13:18:58;;;;;;;2.80;2.60;;;;;;;;;;5006040;28;20054;-85
2024/02/10 13:21:28;;;;;;;3.15;2.95;;;;;;;;;;5006127;28;20133;-85
2024/02/10 13:23:55;;;;;;;3.53;3.20;;;;;;;;;;5014666;28;20095;-83
2024/02/10 13:26:23;;;;;;;3.25;2.95;;;;;;;;;;5000044;28;20447;-83
2024/02/10 13:28:50;;;;;;;3.30;3.00;;;;;;;;;;5000740;28;20443;-84
2024/02/10 13:31:21;;;;;;;3.00;2.80;;;;;;;;;;5012476;28;20077;-84
2024/02/10 13:33:49;;;;;;;2.60;2.35;;;;;;;;;;5000898;28;20051;-84
2024/02/10 13:36:20;;;;;;;6.30;2.95;;;;;;;;;;5018100;28;20104;-83
2024/02/10 14:01:16;;;;;;;3.53;3.10;;;;;;;;;;5015530;28;20099;-84
2024/02/10 14:06:34;;;;;;;4.18;3.30;;;;;;;;;;5001912;28;20058;-84
2024/02/10 14:09:04;;;;;;;4.32;3.40;;;;;;;;;;4998555;28;20411;-83
2024/02/10 14:11:38;;;;;;;4.60;3.42;;;;;;;;;;5002352;28;20056;-83
2024/02/10 14:14:19;;;;;;;6.65;3.70;;;;;;;;;;5013972;28;20058;-83
2024/02/10 14:16:48;;;;;;;3.88;3.58;;;;;;;;;;5011750;28;20487;-83
2024/02/10 14:19:17;;;;;;;5.30;3.42;;;;;;;;;;5009224;28;20056;-83
2024/02/10 14:21:48;;;;;;;3.78;3.47;;;;;;;;;;5007367;28;20050;-84
2024/02/10 14:24:18;;;;;;;4.65;4.20;;;;;;;;;;5017504;28;20106;-84
2024/02/10 14:27:00;;;;;;;10.60;5.85;;;;;;;;;;5012715;28;20052;-85
2024/02/10 14:29:36;;;;;;;5.50;3.97;;;;;;;;;;5006822;28;20107;-86
2024/02/10 14:32:10;;;;;;;8.27;7.30;;;;;;;;;;5006877;28;20054;-86
2024/02/10 14:37:41;;;;;;;4.47;3.72;;;;;;;;;;5007328;28;20133;-86
2024/02/10 14:40:18;;;;;;;4.00;3.70;;;;;;;;;;5001395;28;20072;-86
2024/02/10 14:43:05;;;;;;;5.22;3.53;;;;;;;;;;5008082;28;20764;-86
2024/02/10 14:45:34;;;;;;;24.42;19.08;;;;;;;;;;5012488;28;20062;-85
2024/02/10 14:48:02;;;;;;;7.18;5.90;;;;;;;;;;5022726;28;20117;-85
2024/02/10 14:50:30;;;;;;;8.40;6.88;;;;;;;;;;5014049;28;20062;-85
2024/02/10 14:52:57;;;;;;;24.55;15.45;;;;;;;;;;5001833;28;20084;-85
2024/02/10 14:55:28;;;;;;;6.88;5.57;;;;;;;;;;5001543;28;20058;-85
2024/02/10 14:57:56;;;;;;;10.75;6.70;;;;;;;;;;5002103;28;20050;-85
2024/02/10 15:00:30;;;;;;;28.17;16.98;;;;;;;;;;5009298;28;20050;-85
2024/02/10 15:03:08;;;;;;;5.80;4.18;;;;;;;;;;5005180;28;20050;-85
2024/02/10 15:05:40;;;;;;;4.05;3.08;;;;;;;;;;5004879;28;20062;-86
2024/02/10 15:08:08;;;;;;;4.40;2.90;;;;;;;;;;5002315;28;20590;-86
2024/02/10 15:10:39;;;;;;;3.10;2.83;;;;;;;;;;5013037;28;20042;-85
2024/02/10 15:13:07;;;;;;;3.53;3.22;;;;;;;;;;5006319;28;20406;-86
2024/02/10 15:15:45;;;;;;;3.45;2.90;;;;;;;;;;5013760;28;20538;-84
2024/02/10 15:18:16;;;;;;;4.45;3.85;;;;;;;;;;5013737;28;20104;-85
2024/02/10 15:20:49;;;;;;;3.88;3.03;;;;;;;;;;5017582;28;20058;-86